Time;durP1;ratioP1;P1;durP2;ratioP2;P2;SDS_P1;SDS_P2;PMS_P1;PMS_P2;Temp;Humidity;BMP_temperature;BMP_pressure;BME280_temperature;BME280_humidity;BME280_pressure;Samples;Min_cycle;Max_cycle;Signal;HPM_P1;HPM_P2
2021/06/25 00:01:18;;;;;;;6.13;5.05;;;;;;;17.72;85.66;100621.09;5006177;28;20057;-61
2021/06/25 00:03:45;;;;;;;5.32;4.82;;;;;;;17.70;85.82;100620.34;5003783;28;20175;-62
2021/06/25 00:06:12;;;;;;;5.25;4.40;;;;;;;17.69;85.63;100624.00;5006108;28;20322;-61
2021/06/25 00:08:38;;;;;;;8.45;4.88;;;;;;;17.68;85.83;100613.38;5025243;28;20144;-61
2021/06/25 00:11:05;;;;;;;5.22;4.72;;;;;;;17.68;86.42;100624.97;5023518;28;20068;-61
2021/06/25 00:13:32;;;;;;;5.78;4.93;;;;;;;17.67;85.97;100625.06;5018833;28;20493;-61
2021/06/25 00:15:58;;;;;;;6.60;4.45;;;;;;;17.63;85.29;100626.25;4998657;28;20068;-61
2021/06/25 00:18:25;;;;;;;7.15;4.95;;;;;;;17.62;85.60;100620.03;5039563;28;20463;-62
2021/06/25 00:20:52;;;;;;;5.22;4.43;;;;;;;17.61;86.00;100617.47;5016735;28;20065;-61
2021/06/25 00:23:18;;;;;;;5.32;4.82;;;;;;;17.61;86.27;100622.81;4997188;28;20988;-61
2021/06/25 00:25:45;;;;;;;6.18;4.93;;;;;;;17.61;86.21;100612.13;5017677;28;20059;-61
2021/06/25 00:28:12;;;;;;;5.28;4.75;;;;;;;17.60;86.29;100610.41;5014410;28;20068;-61
2021/06/25 00:30:38;;;;;;;6.30;4.68;;;;;;;17.58;86.32;100612.34;5018028;28;20055;-61
2021/06/25 00:33:05;;;;;;;4.75;4.35;;;;;;;17.56;86.48;100606.22;5019842;28;20054;-61
2021/06/25 00:35:32;;;;;;;5.15;4.47;;;;;;;17.54;86.46;100599.16;5018636;28;20052;-61
2021/06/25 00:37:59;;;;;;;6.07;5.00;;;;;;;17.55;86.65;100608.03;5014481;28;20089;-60
2021/06/25 00:40:26;;;;;;;8.45;5.35;;;;;;;17.54;87.04;100607.19;4999692;28;20057;-60
2021/06/25 00:42:53;;;;;;;7.55;4.93;;;;;;;17.54;87.23;100604.50;5014494;28;20416;-63
2021/06/25 00:45:20;;;;;;;5.18;4.65;;;;;;;17.56;87.39;100608.91;5022398;28;20080;-62
2021/06/25 00:47:48;;;;;;;6.50;4.85;;;;;;;17.53;87.48;100600.13;5023695;28;20059;-62
2021/06/25 00:50:20;;;;;;;5.05;4.55;;;;;;;17.57;87.23;100605.25;5026744;28;20072;-61
2021/06/25 00:52:53;;;;;;;7.10;5.50;;;;;;;17.56;87.23;100608.91;5013703;28;20061;-62
2021/06/25 00:55:21;;;;;;;7.05;5.43;;;;;;;17.58;87.26;100609.66;5015706;28;20061;-62
2021/06/25 00:57:48;;;;;;;6.47;5.45;;;;;;;17.58;87.48;100613.19;5023641;28;20128;-61
2021/06/25 01:00:15;;;;;;;7.45;5.70;;;;;;;17.60;87.76;100613.06;5017810;28;20049;-61
2021/06/25 01:02:42;;;;;;;11.80;6.10;;;;;;;17.61;88.03;100612.97;5012732;28;20457;-61
2021/06/25 01:05:10;;;;;;;8.70;6.88;;;;;;;17.62;88.69;100609.31;5011108;28;20050;-62
2021/06/25 01:07:37;;;;;;;10.75;7.00;;;;;;;17.60;89.37;100605.91;5010446;28;20131;-60
2021/06/25 01:10:06;;;;;;;9.18;6.80;;;;;;;17.59;89.70;100608.69;5013305;28;20719;-60
2021/06/25 01:12:34;;;;;;;9.88;7.57;;;;;;;17.58;90.39;100604.28;5020943;28;20069;-59
2021/06/25 01:15:01;;;;;;;10.93;7.38;;;;;;;17.58;90.46;100604.28;5002358;28;20068;-61
2021/06/25 01:17:31;;;;;;;9.38;6.68;;;;;;;17.59;91.28;100619.41;5017648;28;20335;-60
2021/06/25 01:19:59;;;;;;;9.02;6.82;;;;;;;17.59;91.41;100619.41;5011299;28;20061;-61
2021/06/25 01:22:34;;;;;;;11.23;7.13;;;;;;;17.57;91.71;100611.47;5010845;28;20161;-59
2021/06/25 01:25:15;;;;;;;7.15;6.43;;;;;;;17.56;91.48;100615.13;5012843;28;20532;-60
2021/06/25 01:27:42;;;;;;;;;;;;;;;17.57;92.11;100621.31;5009262;28;20041;-60
2021/06/25 01:30:12;;;;;;;8.50;7.50;;;;;;;17.55;92.14;100618.75;4983402;28;20689;-59
2021/06/25 01:32:40;;;;;;;8.57;7.70;;;;;;;17.53;92.44;100612.66;5006830;28;20064;-60
2021/06/25 01:35:09;;;;;;;13.00;7.60;;;;;;;17.52;92.30;100613.63;5013237;28;20240;-59
2021/06/25 01:37:37;;;;;;;10.00;7.70;;;;;;;17.50;92.64;100613.72;5013979;28;20129;-59
2021/06/25 01:40:05;;;;;;;9.35;8.35;;;;;;;17.50;92.77;100615.53;5009900;28;20046;-60
2021/06/25 01:42:34;;;;;;;9.38;8.45;;;;;;;17.47;92.74;100613.94;5010760;28;20127;-60
2021/06/25 01:45:07;;;;;;;9.77;8.02;;;;;;;17.46;93.05;100609.59;5022687;28;20562;-60
2021/06/25 01:47:40;;;;;;;9.70;8.43;;;;;;;17.46;93.03;100603.38;5007847;28;20973;-60
2021/06/25 01:50:09;;;;;;;10.15;8.00;;;;;;;17.46;93.02;100604.22;5016965;28;20060;-60
2021/06/25 01:52:36;;;;;;;11.30;8.13;;;;;;;17.46;93.11;100600.69;5022566;28;20547;-60
2021/06/25 01:55:04;;;;;;;9.45;8.48;;;;;;;17.46;93.01;100604.22;5001283;28;20058;-61
2021/06/25 01:57:31;;;;;;;10.93;7.90;;;;;;;17.46;92.93;100595.34;5024406;28;20068;-62
2021/06/25 01:59:58;;;;;;;10.10;7.57;;;;;;;17.45;93.11;100601.66;5018310;28;20129;-60
2021/06/25 02:02:25;;;;;;;12.98;8.77;;;;;;;17.43;92.85;100590.19;5010074;28;20497;-59
2021/06/25 02:04:52;;;;;;;11.90;8.15;;;;;;;17.42;92.89;100600.06;5021552;28;20057;-61
2021/06/25 02:07:18;;;;;;;10.38;7.85;;;;;;;17.43;93.22;100588.38;5016256;28;20049;-62
2021/06/25 02:09:45;;;;;;;11.82;8.13;;;;;;;17.45;93.43;100591.81;5018353;28;20140;-59
2021/06/25 02:12:12;;;;;;;9.27;7.47;;;;;;;17.41;93.56;100587.63;5014475;28;20069;-59
2021/06/25 02:14:38;;;;;;;8.38;7.55;;;;;;;17.43;93.94;100587.53;5039632;28;20106;-61
2021/06/25 02:17:05;;;;;;;12.52;8.60;;;;;;;17.41;94.14;100589.44;5013026;28;20081;-60
2021/06/25 02:19:32;;;;;;;10.50;7.70;;;;;;;17.38;94.83;100590.53;5017370;28;20057;-58
2021/06/25 02:21:58;;;;;;;11.52;7.65;;;;;;;17.36;94.52;100591.59;5018545;28;20053;-61
2021/06/25 02:24:25;;;;;;;7.75;6.70;;;;;;;17.29;95.15;100580.50;5011069;28;20563;-59
2021/06/25 02:26:52;;;;;;;9.77;6.97;;;;;;;17.30;94.85;100592.06;5017044;28;20049;-60
2021/06/25 02:29:18;;;;;;;9.00;6.57;;;;;;;17.27;95.04;100589.59;5014832;28;20172;-61
2021/06/25 02:31:45;;;;;;;7.35;6.47;;;;;;;17.24;94.95;100589.81;5004560;28;20057;-60
2021/06/25 02:34:12;;;;;;;10.32;6.90;;;;;;;17.21;94.38;100598.03;5030607;28;20085;-60
2021/06/25 02:36:38;;;;;;;9.77;6.97;;;;;;;17.18;94.59;100591.94;5006958;28;20050;-59
2021/06/25 02:39:05;;;;;;;6.78;6.10;;;;;;;17.17;94.97;100592.91;5016120;28;20390;-61
2021/06/25 02:41:32;;;;;;;7.82;6.93;;;;;;;17.14;95.23;100587.78;5017908;28;20080;-59
2021/06/25 02:43:58;;;;;;;7.10;6.40;;;;;;;17.10;94.86;100591.66;5010441;28;20060;-61
2021/06/25 02:46:25;;;;;;;9.52;6.80;;;;;;;17.06;94.40;100594.63;5027634;28;20052;-62
2021/06/25 02:48:51;;;;;;;8.50;6.43;;;;;;;17.01;94.57;100589.59;5010449;28;20050;-61
2021/06/25 02:51:18;;;;;;;10.40;7.60;;;;;;;16.98;95.32;100595.19;5019336;28;20152;-61
2021/06/25 02:53:45;;;;;;;8.55;6.53;;;;;;;16.97;95.60;100600.66;5004932;28;20052;-61
2021/06/25 02:56:12;;;;;;;10.68;6.80;;;;;;;16.90;96.11;100596.69;5013798;28;20115;-61
2021/06/25 02:58:39;;;;;;;9.43;7.75;;;;;;;16.81;96.47;100595.53;5028953;28;20092;-58
2021/06/25 03:01:05;;;;;;;11.15;7.53;;;;;;;16.76;97.15;100592.28;5025749;28;20077;-62
2021/06/25 03:03:32;;;;;;;11.45;7.68;;;;;;;16.74;97.91;100594.22;5007351;28;20048;-60
2021/06/25 03:05:58;;;;;;;8.23;6.88;;;;;;;16.71;98.73;100592.59;5011085;28;20057;-62
2021/06/25 03:08:25;;;;;;;8.60;7.25;;;;;;;16.66;98.62;100589.41;5030286;28;20076;-61
2021/06/25 03:10:52;;;;;;;8.85;7.30;;;;;;;16.58;98.58;100591.72;5011502;28;20053;-62
2021/06/25 03:13:21;;;;;;;9.38;8.02;;;;;;;16.55;99.11;100591.06;5014882;28;20049;-61
2021/06/25 03:15:48;;;;;;;9.02;7.43;;;;;;;16.52;99.62;100588.63;5022047;28;20404;-61
2021/06/25 03:18:15;;;;;;;7.85;6.78;;;;;;;16.47;99.74;100592.47;5013848;28;20148;-60
2021/06/25 03:20:42;;;;;;;7.00;6.38;;;;;;;16.44;99.82;100595.34;5013342;28;20060;-61
2021/06/25 03:23:09;;;;;;;7.47;6.68;;;;;;;16.44;99.96;100597.16;5014927;28;20049;-62
2021/06/25 03:25:36;;;;;;;11.75;7.07;;;;;;;16.42;99.78;100593.72;5014285;28;20415;-63
2021/06/25 03:28:04;;;;;;;10.27;7.30;;;;;;;16.39;99.58;100584.09;5023629;28;20045;-62
2021/06/25 03:30:32;;;;;;;8.85;7.43;;;;;;;16.38;99.80;100586.88;5016491;28;20053;-61
2021/06/25 03:32:59;;;;;;;8.55;6.63;;;;;;;16.38;100.00;100586.88;4999212;28;20061;-60
2021/06/25 03:35:26;;;;;;;10.07;7.55;;;;;;;16.37;100.00;100585.19;4989235;28;20050;-62
2021/06/25 03:37:53;;;;;;;8.27;6.93;;;;;;;16.37;100.00;100586.00;4978789;28;20145;-59
2021/06/25 03:40:19;;;;;;;9.50;7.75;;;;;;;16.40;100.00;100587.63;4995834;28;20538;-62
2021/06/25 03:42:46;;;;;;;8.38;6.93;;;;;;;16.44;100.00;100591.81;4992583;28;20613;-62
2021/06/25 03:45:14;;;;;;;9.15;6.90;;;;;;;16.48;100.00;100596.00;4999458;28;20054;-61
2021/06/25 03:47:41;;;;;;;10.88;7.35;;;;;;;16.50;100.00;100594.06;4990632;28;20081;-61
2021/06/25 03:50:10;;;;;;;8.45;7.05;;;;;;;16.51;100.00;100585.09;4991493;28;20057;-60
2021/06/25 03:52:37;;;;;;;8.20;6.95;;;;;;;16.54;100.00;100582.19;4998936;28;20146;-60
2021/06/25 03:55:06;;;;;;;9.32;6.70;;;;;;;16.56;100.00;100584.75;4986458;28;20073;-62
2021/06/25 03:57:33;;;;;;;7.13;6.35;;;;;;;16.58;100.00;100593.53;4995605;28;20041;-60
2021/06/25 03:59:59;;;;;;;9.02;7.70;;;;;;;16.59;100.00;100590.75;4993348;28;20054;-60
2021/06/25 04:02:26;;;;;;;8.00;7.20;;;;;;;16.63;100.00;100596.78;4988609;28;20062;-61
2021/06/25 04:04:52;;;;;;;8.55;7.38;;;;;;;16.64;100.00;100587.81;4994687;28;20050;-61
2021/06/25 04:07:19;;;;;;;9.05;7.60;;;;;;;16.63;100.00;100586.94;4988596;28;20053;-60
2021/06/25 04:09:45;;;;;;;9.60;8.13;;;;;;;16.65;100.00;100601.06;4994919;28;20054;-62
2021/06/25 04:12:12;;;;;;;9.23;7.85;;;;;;;16.66;100.00;100593.91;4993000;28;20086;-62
2021/06/25 04:14:38;;;;;;;9.70;7.95;;;;;;;16.67;100.00;100588.47;4989569;28;20554;-61
2021/06/25 04:17:05;;;;;;;8.80;7.65;;;;;;;16.72;100.00;100580.09;4993264;28;20073;-61
2021/06/25 04:19:31;;;;;;;13.13;7.72;;;;;;;16.73;100.00;100576.47;4988644;28;20065;-60
2021/06/25 04:21:58;;;;;;;8.63;7.40;;;;;;;16.77;100.00;100580.63;4996962;28;20042;-60
2021/06/25 04:24:24;;;;;;;8.75;7.65;;;;;;;16.80;100.00;100583.09;4986484;28;20073;-61
2021/06/25 04:26:51;;;;;;;8.77;7.88;;;;;;;16.86;100.00;100589.81;4980701;28;20049;-59
2021/06/25 04:29:17;;;;;;;8.30;7.05;;;;;;;16.88;100.00;100586.09;4991503;28;20064;-60
2021/06/25 04:31:50;;;;;;;9.30;7.15;;;;;;;16.94;100.00;100595.50;4983147;28;20053;-60
2021/06/25 04:34:17;;;;;;;8.02;6.57;;;;;;;16.97;100.00;100585.47;4989071;28;20064;-60
2021/06/25 04:36:46;;;;;;;7.43;6.30;;;;;;;17.00;100.00;100579.88;4987055;28;20042;-58
2021/06/25 04:39:13;;;;;;;7.88;6.55;;;;;;;17.00;98.83;100579.88;4987345;28;20058;-59
2021/06/25 04:41:39;;;;;;;10.93;7.35;;;;;;;17.04;98.59;100583.19;4991514;28;20064;-58
2021/06/25 04:44:06;;;;;;;8.48;7.15;;;;;;;17.06;98.23;100584.78;4988376;28;20081;-59
2021/06/25 04:46:33;;;;;;;9.63;7.68;;;;;;;17.12;98.26;100587.03;4989964;28;20421;-61
2021/06/25 04:49:00;;;;;;;10.52;7.60;;;;;;;17.15;98.07;100594.88;4989930;28;20759;-61
2021/06/25 04:51:27;;;;;;;8.60;7.47;;;;;;;17.20;98.30;100583.81;4992382;28;20070;-62
2021/06/25 04:53:53;;;;;;;8.88;7.82;;;;;;;17.23;98.23;100585.41;4997831;28;20057;-62
2021/06/25 04:56:20;;;;;;;12.30;9.40;;;;;;;17.25;97.94;100589.69;4995031;28;20123;-62
2021/06/25 04:58:47;;;;;;;10.85;9.00;;;;;;;17.29;97.58;100593.88;4998395;28;20785;-60
2021/06/25 05:01:14;;;;;;;11.88;10.63;;;;;;;17.33;97.62;100591.81;5004299;28;20053;-60
2021/06/25 05:03:41;;;;;;;12.45;10.27;;;;;;;17.40;97.85;100582.38;5006856;28;20062;-60
2021/06/25 05:06:08;;;;;;;12.07;10.77;;;;;;;17.43;97.79;100588.38;5004609;28;20057;-61
2021/06/25 05:08:35;;;;;;;18.52;15.30;;;;;;;17.45;96.89;100590.94;4985253;28;20050;-61
2021/06/25 05:11:01;;;;;;;19.52;15.90;;;;;;;17.46;96.57;100589.97;5007236;28;20067;-60
2021/06/25 05:13:27;;;;;;;20.85;17.33;;;;;;;17.45;96.59;100590.94;5005770;28;20049;-61
2021/06/25 05:15:54;;;;;;;21.15;17.77;;;;;;;17.47;96.70;100594.38;4989278;28;20052;-60
2021/06/25 05:18:22;;;;;;;24.33;19.35;;;;;;;17.46;95.79;100595.34;4988191;28;20069;-60
2021/06/25 05:21:09;;;;;;;22.52;18.50;;;;;;;17.48;96.68;100590.69;4987665;28;20057;-61
2021/06/25 05:23:35;;;;;;;22.70;18.98;;;;;;;17.49;96.93;100597.78;5008185;28;20061;-60
2021/06/25 05:26:02;;;;;;;26.38;20.92;;;;;;;17.52;96.83;100592.19;4993181;28;20049;-62
2021/06/25 05:28:29;;;;;;;24.88;20.60;;;;;;;17.52;96.54;100586.84;4987006;28;20050;-61
2021/06/25 05:30:55;;;;;;;27.38;22.02;;;;;;;17.47;96.18;100579.13;4994461;28;20054;-62
2021/06/25 05:33:23;;;;;;;28.65;22.20;;;;;;;17.44;96.10;100590.09;4984971;28;20057;-61
2021/06/25 05:35:49;;;;;;;27.95;22.00;;;;;;;17.44;97.23;100581.19;4994599;28;20073;-59
2021/06/25 05:38:17;;;;;;;26.55;21.45;;;;;;;17.44;96.62;100590.09;5003443;28;20133;-61
2021/06/25 05:40:44;;;;;;;24.42;20.05;;;;;;;17.47;96.52;100586.34;5008517;28;20054;-60
2021/06/25 05:43:11;;;;;;;27.30;21.40;;;;;;;17.59;96.21;100603.34;4998115;28;20054;-59
2021/06/25 05:45:39;;;;;;;26.05;20.95;;;;;;;17.72;96.08;100597.00;4988994;28;20066;-56
2021/06/25 05:48:06;;;;;;;26.58;20.55;;;;;;;17.90;94.07;100612.69;4985763;28;20069;-58
2021/06/25 05:50:34;;;;;;;27.65;20.60;;;;;;;17.94;91.53;100606.13;4995882;28;20057;-59
2021/06/25 05:53:01;;;;;;;25.60;20.23;;;;;;;17.97;91.69;100614.78;5000411;28;20173;-58
2021/06/25 05:55:27;;;;;;;24.25;19.63;;;;;;;18.10;92.35;100609.38;4993284;28;20073;-59
2021/06/25 05:57:54;;;;;;;23.08;18.70;;;;;;;18.33;92.32;100604.97;4991063;28;20505;-59
2021/06/25 06:00:21;;;;;;;19.30;16.05;;;;;;;18.36;90.42;100613.63;5011240;28;20038;-59
2021/06/25 06:02:48;;;;;;;19.52;16.27;;;;;;;18.36;90.11;100608.28;4998843;28;20073;-58
2021/06/25 06:05:14;;;;;;;20.30;15.48;;;;;;;18.36;90.24;100605.59;4995103;28;20072;-60
2021/06/25 06:07:41;;;;;;;21.17;16.25;;;;;;;18.45;89.47;100612.91;5000427;28;20489;-58
2021/06/25 06:10:11;;;;;;;18.85;15.45;;;;;;;18.57;89.49;100611.16;4997508;28;20061;-57
2021/06/25 06:12:38;;;;;;;19.98;17.42;;;;;;;18.70;90.40;100614.63;4999200;28;20064;-57
2021/06/25 06:15:05;;;;;;;17.52;14.93;;;;;;;18.78;88.40;100614.00;4993248;28;20092;-58
2021/06/25 06:17:32;;;;;;;19.67;15.13;;;;;;;18.87;87.45;100616.84;5003118;28;20042;-59
2021/06/25 06:19:58;;;;;;;16.40;14.60;;;;;;;18.95;85.56;100616.25;4998538;28;20049;-59
2021/06/25 06:33:36;;;;;;;17.25;13.80;;;;;;;19.35;80.55;100638.13;4991975;28;20057;-60
2021/06/25 06:36:06;;;;;;;16.50;13.27;;;;;;;19.52;80.70;100631.41;4996273;28;20061;-59
2021/06/25 06:38:33;;;;;;;15.38;13.45;;;;;;;19.65;80.09;100634.84;5004475;28;20045;-62
2021/06/25 06:41:00;;;;;;;17.85;14.98;;;;;;;19.77;80.36;100635.66;5001386;28;20073;-59
2021/06/25 06:43:26;;;;;;;16.10;14.38;;;;;;;19.80;76.51;100632.75;4992603;28;20054;-61
2021/06/25 06:45:53;;;;;;;16.48;14.07;;;;;;;19.85;76.50;100636.75;5010638;28;20056;-61
2021/06/25 06:48:19;;;;;;;15.90;13.65;;;;;;;19.91;76.48;100644.31;4999750;28;20038;-61
2021/06/25 06:50:46;;;;;;;16.83;15.05;;;;;;;19.85;74.17;100643.94;4995782;28;20058;-61
2021/06/25 06:53:12;;;;;;;16.58;14.38;;;;;;;19.89;75.30;100648.09;5005280;28;20050;-60
2021/06/25 06:55:43;;;;;;;17.25;14.27;;;;;;;19.96;75.42;100644.78;4990908;28;20056;-62
2021/06/25 06:58:11;;;;;;;16.38;14.68;;;;;;;20.12;75.67;100648.91;4999253;28;20050;-61
2021/06/25 07:00:39;;;;;;;17.83;14.88;;;;;;;20.32;74.48;100645.41;4989296;28;20058;-62
2021/06/25 07:03:23;;;;;;;16.42;14.68;;;;;;;20.84;70.98;100649.09;4999480;28;20053;-62
2021/06/25 07:05:50;;;;;;;17.67;15.23;;;;;;;21.27;71.17;100647.09;4985816;28;20053;-61
2021/06/25 07:08:17;;;;;;;19.13;14.20;;;;;;;21.58;70.59;100647.94;4985051;28;20481;-62
2021/06/25 07:10:44;;;;;;;16.58;14.05;;;;;;;21.92;68.75;100650.31;4982877;28;20116;-60
2021/06/25 07:13:11;;;;;;;15.98;14.20;;;;;;;22.04;67.25;100660.88;4996175;28;20639;-60
2021/06/25 07:15:38;;;;;;;14.95;13.45;;;;;;;22.06;68.73;100666.13;4987819;28;20049;-61
2021/06/25 07:18:05;;;;;;;19.33;15.07;;;;;;;21.87;66.86;100666.06;4992887;28;20137;-63
2021/06/25 07:20:32;;;;;;;18.48;15.90;;;;;;;21.45;66.66;100673.41;4994103;28;20053;-61
2021/06/25 07:23:00;;;;;;;17.55;15.07;;;;;;;21.21;68.87;100677.28;4997459;28;20053;-62
2021/06/25 07:25:28;;;;;;;17.95;15.15;;;;;;;21.11;69.05;100681.72;5004906;28;20050;-60
2021/06/25 07:27:54;;;;;;;17.27;14.30;;;;;;;21.17;70.04;100674.94;5001916;28;20137;-61
2021/06/25 07:30:22;;;;;;;21.55;14.57;;;;;;;21.34;70.61;100672.53;5005592;28;20077;-61
2021/06/25 07:32:49;;;;;;;19.65;16.35;;;;;;;21.46;67.94;100670.59;4990401;28;20066;-59
2021/06/25 07:35:16;;;;;;;18.52;14.95;;;;;;;21.53;66.04;100671.78;5009919;28;20140;-61
2021/06/25 07:37:43;;;;;;;16.17;14.48;;;;;;;21.53;66.11;100670.91;5026309;28;20462;-60
2021/06/25 07:40:11;;;;;;;21.40;16.33;;;;;;;21.55;67.12;100672.50;5005681;28;20050;-61
2021/06/25 07:42:37;;;;;;;17.70;14.70;;;;;;;21.46;67.37;100670.59;5025745;28;20061;-59
2021/06/25 07:45:08;;;;;;;17.30;14.00;;;;;;;21.32;67.78;100677.19;5017025;28;20081;-62
2021/06/25 07:47:38;;;;;;;17.10;15.30;;;;;;;21.23;68.52;100682.53;5027847;28;20049;-62
2021/06/25 07:50:07;;;;;;;20.50;15.43;;;;;;;21.13;69.25;100679.75;5011723;28;20514;-60
2021/06/25 07:52:34;;;;;;;21.75;16.50;;;;;;;21.07;70.25;100674.06;5020582;28;20057;-62
2021/06/25 07:55:00;;;;;;;26.55;21.17;;;;;;;20.98;69.81;100676.53;5027928;28;20618;-61
2021/06/25 07:57:27;;;;;;;23.20;20.73;;;;;;;20.81;69.25;100674.44;5020775;28;20094;-61
2021/06/25 07:59:54;;;;;;;27.52;21.80;;;;;;;20.66;69.04;100679.28;5008311;28;20143;-60
2021/06/25 08:02:21;;;;;;;23.17;19.95;;;;;;;20.73;70.92;100682.31;5024770;28;20061;-60
2021/06/25 08:04:48;;;;;;;22.15;18.98;;;;;;;21.01;70.15;100667.34;5024525;28;20046;-60
2021/06/25 08:07:16;;;;;;;25.58;21.13;;;;;;;21.13;68.44;100674.34;5035278;28;20446;-61
2021/06/25 08:09:43;;;;;;;24.25;20.83;;;;;;;21.21;67.64;100682.66;5001808;28;20061;-61
2021/06/25 08:12:12;;;;;;;23.98;21.27;;;;;;;21.09;66.82;100681.00;5031762;28;20709;-60
2021/06/25 08:14:40;;;;;;;20.17;17.95;;;;;;;21.01;68.26;100681.66;5028532;28;20432;-61
2021/06/25 08:17:08;;;;;;;23.10;19.38;;;;;;;20.92;68.00;100673.53;5005199;28;20115;-59
2021/06/25 08:19:35;;;;;;;25.83;19.55;;;;;;;20.87;67.36;100678.44;5007076;28;20532;-62
2021/06/25 08:22:03;;;;;;;23.27;18.88;;;;;;;20.77;68.05;100678.38;5017378;28;20102;-60
2021/06/25 08:24:33;;;;;;;23.73;20.63;;;;;;;20.72;67.99;100682.44;5032631;28;20073;-60
2021/06/25 08:27:02;;;;;;;25.48;20.00;;;;;;;20.73;68.16;100676.06;5018067;28;20476;-60
2021/06/25 08:29:29;;;;;;;23.63;21.00;;;;;;;20.94;67.57;100677.78;5028546;28;20120;-60
2021/06/25 08:31:56;;;;;;;21.98;17.65;;;;;;;21.31;67.33;100656.63;5019216;28;20053;-59
2021/06/25 08:34:24;;;;;;;22.42;19.33;;;;;;;21.58;64.88;100664.13;5018434;28;20168;-61
2021/06/25 08:36:52;;;;;;;22.35;19.83;;;;;;;21.98;64.18;100664.09;5034869;28;20136;-62
2021/06/25 08:39:19;;;;;;;24.20;20.38;;;;;;;22.33;62.93;100660.09;5009289;28;20037;-61
2021/06/25 08:41:46;;;;;;;21.58;19.10;;;;;;;22.49;61.90;100657.66;5036115;28;20297;-61
2021/06/25 08:44:13;;;;;;;24.15;20.35;;;;;;;22.59;61.87;100655.81;5009824;28;20140;-61
2021/06/25 08:46:47;;;;;;;24.45;20.23;;;;;;;22.62;61.75;100655.53;5041029;28;20053;-62
2021/06/25 08:49:18;;;;;;;20.60;17.98;;;;;;;22.75;61.64;100649.84;5020228;28;20390;-61
2021/06/25 08:51:49;;;;;;;19.92;17.70;;;;;;;22.87;60.25;100648.69;5053030;28;20499;-61
2021/06/25 08:54:15;;;;;;;19.45;17.35;;;;;;;22.92;59.79;100657.22;5029656;28;20061;-60
2021/06/25 08:56:43;;;;;;;22.38;19.42;;;;;;;22.89;59.21;100656.66;5028325;28;20069;-59
2021/06/25 08:59:10;;;;;;;23.70;19.17;;;;;;;22.75;59.64;100658.78;5021243;28;20037;-62
2021/06/25 09:01:37;;;;;;;24.17;20.83;;;;;;;22.54;59.41;100666.19;5029557;28;20058;-59
2021/06/25 09:04:04;;;;;;;22.27;19.88;;;;;;;22.31;59.54;100651.28;5024033;28;20045;-64
2021/06/25 09:06:34;;;;;;;24.42;20.50;;;;;;;22.15;59.31;100654.53;5040174;28;20056;-62
2021/06/25 09:09:15;;;;;;;21.80;18.25;;;;;;;22.08;60.21;100655.22;5023607;28;20069;-61
2021/06/25 09:11:43;;;;;;;26.70;20.80;;;;;;;22.29;61.70;100661.34;5012314;28;20203;-59
2021/06/25 09:14:11;;;;;;;25.10;20.50;;;;;;;22.42;60.72;100659.22;5017534;28;20049;-60
2021/06/25 09:16:39;;;;;;;25.00;20.60;;;;;;;22.43;60.75;100650.13;5027156;28;20103;-60
2021/06/25 09:19:16;;;;;;;20.83;18.35;;;;;;;22.61;61.27;100659.22;5016433;28;20073;-61
2021/06/25 09:22:00;;;;;;;27.25;23.35;;;;;;;22.65;58.30;100657.09;5035895;28;20057;-60
2021/06/25 09:24:28;;;;;;;25.02;20.02;;;;;;;22.91;60.11;100652.81;5036535;28;20061;-59
2021/06/25 09:27:00;;;;;;;26.48;21.88;;;;;;;23.15;57.44;100648.78;5023294;28;20136;-60
2021/06/25 09:29:29;;;;;;;25.55;21.98;;;;;;;23.22;57.66;100648.06;5024903;28;20099;-59
2021/06/25 09:32:04;;;;;;;27.25;22.23;;;;;;;23.25;58.04;100642.38;5036093;28;20076;-58
2021/06/25 09:34:34;;;;;;;27.38;23.17;;;;;;;23.06;57.43;100647.81;5022698;28;20493;-61
2021/06/25 09:37:02;;;;;;;26.73;21.85;;;;;;;22.93;58.43;100639.19;5021217;28;20324;-60
2021/06/25 09:39:29;;;;;;;27.60;22.63;;;;;;;22.91;58.61;100647.44;5020855;28;20054;-60
2021/06/25 09:41:56;;;;;;;24.38;21.73;;;;;;;22.95;57.29;100646.16;5036491;28;20103;-61
2021/06/25 09:44:26;;;;;;;26.77;22.60;;;;;;;23.08;57.20;100643.13;5030808;28;20041;-61
2021/06/25 09:46:55;;;;;;;29.47;23.77;;;;;;;23.21;57.05;100646.34;5036640;28;20063;-61
2021/06/25 09:49:27;;;;;;;25.77;22.60;;;;;;;23.27;56.81;100640.38;5028319;28;21158;-61
2021/06/25 09:51:56;;;;;;;25.98;22.20;;;;;;;23.30;58.74;100639.19;5026029;28;20737;-61
2021/06/25 09:54:25;;;;;;;25.65;22.50;;;;;;;23.42;57.51;100638.88;5027800;28;20519;-61
2021/06/25 09:57:09;;;;;;;28.23;24.42;;;;;;;23.43;57.10;100640.59;5026159;28;20114;-59
2021/06/25 09:59:45;;;;;;;28.80;24.13;;;;;;;23.45;55.63;100643.16;5035258;28;20076;-61
2021/06/25 10:02:21;;;;;;;25.80;22.23;;;;;;;23.51;56.11;100638.97;5028668;28;20056;-59
2021/06/25 10:04:59;;;;;;;24.15;21.10;;;;;;;23.66;57.37;100641.06;5029286;28;20103;-61
2021/06/25 10:07:28;;;;;;;25.48;20.52;;;;;;;23.88;55.99;100649.78;5027798;28;20089;-61
2021/06/25 10:09:58;;;;;;;25.40;21.88;;;;;;;23.94;54.00;100644.59;5033868;28;20102;-60
2021/06/25 10:12:25;;;;;;;21.40;18.70;;;;;;;23.97;53.58;100638.91;5027278;28;20045;-61
2021/06/25 10:14:53;;;;;;;22.00;19.38;;;;;;;24.14;54.20;100638.06;5027640;28;20451;-61
2021/06/25 10:17:26;;;;;;;23.50;20.10;;;;;;;24.05;53.54;100639.00;5029267;28;20054;-60
2021/06/25 10:19:58;;;;;;;22.05;19.10;;;;;;;23.80;54.29;100634.31;5027757;28;20124;-62
2021/06/25 10:22:26;;;;;;;24.20;21.00;;;;;;;23.58;55.78;100632.88;5040024;28;20057;-61
2021/06/25 10:24:54;;;;;;;20.40;18.30;;;;;;;23.44;57.47;100631.50;5026755;28;20045;-61
2021/06/25 10:27:22;;;;;;;24.25;19.05;;;;;;;23.47;56.31;100633.00;5025835;28;20168;-60
2021/06/25 10:29:50;;;;;;;20.20;17.95;;;;;;;23.51;56.28;100636.28;5024744;28;20049;-61
2021/06/25 10:32:18;;;;;;;20.17;17.63;;;;;;;23.59;54.32;100628.31;5018731;28;20068;-60
2021/06/25 10:34:46;;;;;;;20.95;17.73;;;;;;;23.74;54.15;100629.53;5039198;28;20057;-60
2021/06/25 10:37:20;;;;;;;22.17;17.75;;;;;;;23.90;55.05;100634.25;5007289;28;20089;-61
2021/06/25 10:39:47;;;;;;;23.30;18.75;;;;;;;23.93;53.58;100621.25;5015397;28;20049;-61
2021/06/25 10:42:14;;;;;;;22.45;18.48;;;;;;;24.05;53.31;100624.63;5021438;28;20049;-61
2021/06/25 10:44:43;;;;;;;20.77;18.58;;;;;;;24.21;52.73;100626.66;5011769;28;20072;-61
2021/06/25 10:47:17;;;;;;;20.98;18.77;;;;;;;24.27;52.91;100623.34;5022097;28;20049;-60
2021/06/25 10:49:59;;;;;;;22.08;19.67;;;;;;;24.29;51.81;100621.31;5005872;28;20060;-60
2021/06/25 10:52:33;;;;;;;23.13;19.50;;;;;;;24.22;50.41;100621.09;5019796;28;20073;-60
2021/06/25 10:55:04;;;;;;;18.70;15.98;;;;;;;24.00;50.72;100621.53;5021644;28;20063;-60
2021/06/25 10:57:35;;;;;;;21.98;18.20;;;;;;;23.87;51.64;100621.03;5019093;28;20064;-63
2021/06/25 11:00:06;;;;;;;23.90;19.33;;;;;;;23.83;50.90;100620.47;5023709;28;20440;-62
2021/06/25 11:02:44;;;;;;;20.27;17.80;;;;;;;23.77;52.50;100621.94;5019657;28;20053;-60
2021/06/25 11:05:26;;;;;;;21.50;19.20;;;;;;;23.77;52.22;100621.06;5013897;28;20145;-61
2021/06/25 11:07:56;;;;;;;21.10;16.23;;;;;;;23.73;51.57;100619.69;4994949;28;20128;-60
2021/06/25 11:10:25;;;;;;;19.50;17.40;;;;;;;23.62;51.74;100615.31;4998970;28;20041;-60
2021/06/25 11:13:11;;;;;;;22.43;18.37;;;;;;;23.62;51.30;100614.47;5016407;28;20054;-60
2021/06/25 11:15:46;;;;;;;23.77;19.88;;;;;;;23.69;52.64;100613.75;5026387;28;20659;-61
2021/06/25 11:18:22;;;;;;;29.48;23.60;;;;;;;23.68;52.76;100609.34;4990438;28;20140;-58
2021/06/25 11:20:59;;;;;;;25.98;23.15;;;;;;;23.63;51.94;100613.47;5013797;28;20049;-61
2021/06/25 11:23:39;;;;;;;25.65;21.35;;;;;;;23.62;51.23;100619.88;5014706;28;20057;-61
2021/06/25 11:26:15;;;;;;;25.42;21.60;;;;;;;23.61;51.72;100613.63;5024243;28;20094;-59
2021/06/25 11:28:50;;;;;;;29.13;23.30;;;;;;;23.70;50.55;100611.88;5022973;28;20131;-60
2021/06/25 11:31:27;;;;;;;30.13;22.85;;;;;;;23.84;49.63;100619.47;5024663;28;20139;-61